Time;durP1;ratioP1;P1;durP2;ratioP2;P2;SDS_P1;SDS_P2;PMS_P1;PMS_P2;Temp;Humidity;BMP_temperature;BMP_pressure;BME280_temperature;BME280_humidity;BME280_pressure;Samples;Min_cycle;Max_cycle;Signal;HPM_P1;HPM_P2
2021/01/15 00:00:48;;;;;;;;;;;;;;;17.02;39.10;100156.28;4379140;32;19965;-81
2021/01/15 00:03:14;;;;;;;;;;;;;;;17.01;38.82;100155.44;4370492;32;19967;-81
2021/01/15 00:05:40;;;;;;;;;;;;;;;17.01;39.05;100155.44;4384019;32;19951;-81
2021/01/15 00:08:06;;;;;;;;;;;;;;;17.00;39.04;100154.53;4390621;32;19958;-81
2021/01/15 00:10:32;;;;;;;;;;;;;;;16.99;38.67;100155.37;4370464;32;19993;-81
2021/01/15 00:12:58;;;;;;;;;;;;;;;17.00;38.63;100156.28;4370537;32;19984;-81
2021/01/15 00:15:23;;;;;;;;;;;;;;;17.00;38.59;100148.38;4367294;32;19951;-81
2021/01/15 00:17:49;;;;;;;;;;;;;;;16.99;38.73;100154.47;4355205;33;20317;-81
2021/01/15 00:20:15;;;;;;;;;;;;;;;16.98;38.72;100158.84;4354708;32;19940;-81
2021/01/15 00:22:41;;;;;;;;;;;;;;;16.98;38.58;100150.06;4355909;33;19948;-81
2021/01/15 00:25:07;;;;;;;;;;;;;;;16.98;38.83;100152.69;4355477;32;19978;-81
2021/01/15 00:27:33;;;;;;;;;;;;;;;16.98;38.92;100156.19;4369264;32;20292;-81
2021/01/15 00:29:59;;;;;;;;;;;;;;;16.98;38.42;100155.34;4355940;33;19994;-81
2021/01/15 00:32:25;;;;;;;;;;;;;;;16.98;38.60;100150.06;4362856;32;20747;-81
2021/01/15 00:34:51;;;;;;;;;;;;;;;16.97;38.52;100153.53;4371104;32;19947;-81
2021/01/15 00:37:16;;;;;;;;;;;;;;;16.97;38.36;100156.16;4394765;32;19947;-81
2021/01/15 00:39:42;;;;;;;;;;;;;;;16.96;38.48;100155.28;4370241;32;19948;-80
2021/01/15 00:42:08;;;;;;;;;;;;;;;16.96;38.46;100159.63;4382572;32;19969;-81
2021/01/15 00:44:34;;;;;;;;;;;;;;;16.96;38.31;100164.91;4395908;32;19947;-81
2021/01/15 00:47:00;;;;;;;;;;;;;;;16.96;38.32;100159.63;4384752;32;19954;-82
2021/01/15 00:49:26;;;;;;;;;;;;;;;16.96;38.25;100159.63;4369325;32;19959;-81
2021/01/15 00:51:52;;;;;;;;;;;;;;;16.95;38.42;100161.41;4370914;32;20002;-81
2021/01/15 00:54:18;;;;;;;;;;;;;;;16.94;38.19;100163.97;4395142;32;19969;-81
2021/01/15 00:56:44;;;;;;;;;;;;;;;16.95;38.07;100165.75;4387839;32;19958;-81
2021/01/15 00:59:09;;;;;;;;;;;;;;;16.94;38.34;100164.88;4369457;32;19992;-81
2021/01/15 01:01:35;;;;;;;;;;;;;;;16.94;38.11;100169.25;4370734;32;19943;-82
2021/01/15 01:04:01;;;;;;;;;;;;;;;16.95;38.46;100173.66;4370224;32;20050;-81
2021/01/15 01:06:27;;;;;;;;;;;;;;;16.93;37.82;100178.00;4368443;32;20007;-81
2021/01/15 01:08:53;;;;;;;;;;;;;;;16.94;38.00;100166.63;4369489;32;19971;-81
2021/01/15 01:11:19;;;;;;;;;;;;;;;16.94;37.68;100169.25;4367443;32;19939;-81
2021/01/15 01:13:45;;;;;;;;;;;;;;;16.93;38.00;100170.09;4355637;32;19948;-81
2021/01/15 01:16:11;;;;;;;;;;;;;;;16.93;37.96;100167.47;4358644;32;19955;-82
2021/01/15 01:18:37;;;;;;;;;;;;;;;16.93;37.55;100167.47;4369371;32;19943;-81
2021/01/15 01:21:03;;;;;;;;;;;;;;;16.93;37.59;100172.72;4367444;32;19956;-80
2021/01/15 01:23:31;;;;;;;;;;;;;;;16.92;37.67;100177.13;4354886;33;19967;-81
2021/01/15 01:25:57;;;;;;;;;;;;;;;16.93;37.02;100183.25;4357113;32;19992;-81
2021/01/15 01:28:22;;;;;;;;;;;;;;;16.93;37.23;100178.91;4370164;32;20985;-81
2021/01/15 01:30:48;;;;;;;;;;;;;;;16.93;37.37;100180.63;4370180;32;19955;-81
2021/01/15 01:33:14;;;;;;;;;;;;;;;16.93;37.04;100184.16;4382508;32;19954;-81
2021/01/15 01:35:40;;;;;;;;;;;;;;;16.93;37.13;100181.53;4369596;32;19961;-81
2021/01/15 01:38:06;;;;;;;;;;;;;;;16.92;37.00;100186.75;4367586;32;19972;-81
2021/01/15 01:40:32;;;;;;;;;;;;;;;16.93;36.67;100201.66;4367534;32;20391;-81
2021/01/15 01:42:58;;;;;;;;;;;;;;;16.93;37.01;100196.41;4362613;32;19994;-81
2021/01/15 01:45:24;;;;;;;;;;;;;;;16.92;37.05;100198.16;4369292;32;19951;-81
2021/01/15 01:47:50;;;;;;;;;;;;;;;16.92;36.69;100205.16;4368909;32;19969;-81
2021/01/15 01:50:15;;;;;;;;;;;;;;;16.91;36.83;100200.75;4368468;32;19955;-81
2021/01/15 01:52:41;;;;;;;;;;;;;;;16.92;36.92;100202.53;4370634;32;20091;-81
2021/01/15 01:55:07;;;;;;;;;;;;;;;16.91;37.05;100204.25;4368546;32;19965;-82
2021/01/15 01:57:33;;;;;;;;;;;;;;;16.91;36.74;100203.37;4360022;33;20657;-81
2021/01/15 01:59:59;;;;;;;;;;;;;;;16.91;36.76;100211.25;4366729;33;19960;-81
2021/01/15 02:02:25;;;;;;;;;;;;;;;16.90;36.51;100214.75;4366788;33;20001;-80
2021/01/15 02:04:51;;;;;;;;;;;;;;;16.90;36.59;100206.87;4369462;32;19982;-82
2021/01/15 02:07:17;;;;;;;;;;;;;;;16.90;36.62;100220.00;4369257;32;19959;-81
2021/01/15 02:09:42;;;;;;;;;;;;;;;16.90;36.38;100214.75;4369978;32;19970;-79
2021/01/15 02:12:08;;;;;;;;;;;;;;;16.90;36.88;100217.38;4368485;32;19955;-81
2021/01/15 02:14:34;;;;;;;;;;;;;;;16.89;36.83;100215.59;4368560;32;20000;-82
2021/01/15 02:17:00;;;;;;;;;;;;;;;16.88;36.77;100221.72;4366583;33;19959;-80
2021/01/15 02:19:26;;;;;;;;;;;;;;;16.88;36.64;100221.72;4353956;33;19944;-81
2021/01/15 02:21:52;;;;;;;;;;;;;;;16.86;36.86;100222.56;4364874;32;19992;-81
2021/01/15 02:24:18;;;;;;;;;;;;;;;16.86;36.75;100225.22;4394472;32;19996;-81
2021/01/15 02:26:44;;;;;;;;;;;;;;;16.86;36.80;100216.41;4395549;32;19961;-81
2021/01/15 02:29:10;;;;;;;;;;;;;;;16.86;37.06;100214.69;4382399;32;19951;-81
2021/01/15 02:31:36;;;;;;;;;;;;;;;16.86;36.87;100225.22;4394210;32;19963;-80
2021/01/15 02:34:01;;;;;;;;;;;;;;;16.86;36.66;100224.31;4385140;32;19986;-81
2021/01/15 02:36:27;;;;;;;;;;;;;;;16.84;36.71;100226.87;4369371;32;19967;-81
2021/01/15 02:38:53;;;;;;;;;;;;;;;16.85;36.55;100236.59;4369135;32;19943;-81
2021/01/15 02:41:19;;;;;;;;;;;;;;;16.84;36.64;100237.41;4395683;32;19959;-80
2021/01/15 02:43:45;;;;;;;;;;;;;;;16.84;36.68;100228.62;4369126;32;19954;-81
2021/01/15 02:46:12;;;;;;;;;;;;;;;16.84;36.36;100231.28;4396472;32;19953;-81
2021/01/15 02:48:38;;;;;;;;;;;;;;;16.84;36.83;100237.41;4396532;32;19970;-81
2021/01/15 02:51:04;;;;;;;;;;;;;;;16.82;36.70;100239.09;4397461;32;19943;-81
2021/01/15 02:53:29;;;;;;;;;;;;;;;16.84;36.98;100241.78;4397751;32;19952;-80
2021/01/15 02:55:55;;;;;;;;;;;;;;;16.84;36.81;100244.41;4385313;32;20046;-81
2021/01/15 02:58:21;;;;;;;;;;;;;;;16.82;36.90;100241.75;4390172;32;20004;-81
2021/01/15 03:00:47;;;;;;;;;;;;;;;16.82;36.88;100244.37;4357093;33;20488;-81
2021/01/15 03:03:13;;;;;;;;;;;;;;;16.82;36.79;100246.12;4356595;32;19982;-81
2021/01/15 03:05:40;;;;;;;;;;;;;;;16.82;36.79;100249.63;4371038;32;19959;-81
2021/01/15 03:08:06;;;;;;;;;;;;;;;16.82;36.94;100248.75;4397089;32;19943;-81
2021/01/15 03:10:32;;;;;;;;;;;;;;;16.81;36.52;100255.75;4396190;32;19958;-81
2021/01/15 03:12:58;;;;;;;;;;;;;;;16.81;36.31;100258.38;4396559;32;19977;-81
2021/01/15 03:15:23;;;;;;;;;;;;;;;16.82;36.15;100261.91;4396016;32;20061;-81
2021/01/15 03:17:49;;;;;;;;;;;;;;;16.82;36.44;100260.16;4385050;32;19977;-81
2021/01/15 03:20:15;;;;;;;;;;;;;;;16.82;35.98;100265.41;4370211;32;19997;-81
2021/01/15 03:22:44;;;;;;;;;;;;;;;16.82;36.13;100264.53;4371564;32;20182;-81
2021/01/15 03:25:10;;;;;;;;;;;;;;;16.82;36.13;100270.66;4371552;32;19935;-81
2021/01/15 03:27:36;;;;;;;;;;;;;;;16.82;36.11;100275.94;4371586;32;19947;-82
2021/01/15 03:30:02;;;;;;;;;;;;;;;16.82;36.40;100283.81;4394883;32;20005;-81
2021/01/15 03:32:28;;;;;;;;;;;;;;;16.81;36.65;100291.69;4371577;32;20030;-81
2021/01/15 03:34:54;;;;;;;;;;;;;;;16.81;35.86;100284.69;4371658;32;19958;-81
2021/01/15 03:37:19;;;;;;;;;;;;;;;16.82;36.16;100290.84;4395875;32;20257;-81
2021/01/15 03:39:45;;;;;;;;;;;;;;;16.80;36.19;100301.31;4391510;32;19959;-80
2021/01/15 03:42:11;;;;;;;;;;;;;;;16.81;36.27;100300.44;4369942;32;19955;-81
2021/01/15 03:44:37;;;;;;;;;;;;;;;16.80;35.98;100303.94;4368622;32;19959;-82
2021/01/15 03:47:03;;;;;;;;;;;;;;;16.80;35.85;100303.94;4376530;32;19948;-81
2021/01/15 03:49:29;;;;;;;;;;;;;;;16.80;36.13;100314.47;4368433;32;20396;-79
2021/01/15 03:51:55;;;;;;;;;;;;;;;16.80;35.84;100303.94;4356295;32;19970;-81
2021/01/15 03:54:21;;;;;;;;;;;;;;;16.79;35.96;100312.69;4362052;32;19959;-81
2021/01/15 03:56:47;;;;;;;;;;;;;;;16.80;35.74;100324.09;4370965;32;19959;-82
2021/01/15 03:59:12;;;;;;;;;;;;;;;16.79;36.35;100320.56;4367874;32;20055;-82
2021/01/15 04:01:41;;;;;;;;;;;;;;;16.80;35.85;100318.84;4356170;32;19944;-81
2021/01/15 04:04:07;;;;;;;;;;;;;;;16.79;35.99;100317.03;4362128;32;19998;-81
2021/01/15 04:06:33;;;;;;;;;;;;;;;16.78;36.41;100316.16;4370321;32;19970;-81
2021/01/15 04:08:59;;;;;;;;;;;;;;;16.79;36.43;100322.28;4396110;32;19965;-81
2021/01/15 04:11:25;;;;;;;;;;;;;;;16.79;35.81;100330.19;4395496;32;19947;-81
2021/01/15 04:13:50;;;;;;;;;;;;;;;16.78;35.49;100331.94;4395234;32;19946;-81
2021/01/15 04:16:16;;;;;;;;;;;;;;;16.78;35.67;100339.84;4383311;32;19939;-81
2021/01/15 04:18:42;;;;;;;;;;;;;;;16.78;36.09;100342.47;4370478;32;19985;-81
2021/01/15 04:21:08;;;;;;;;;;;;;;;16.78;35.52;100341.56;4369895;32;19943;-81
2021/01/15 04:23:34;;;;;;;;;;;;;;;16.78;35.86;100342.47;4371245;32;19946;-81
2021/01/15 04:26:00;;;;;;;;;;;;;;;16.77;35.80;100351.19;4396206;32;19951;-81
2021/01/15 04:28:26;;;;;;;;;;;;;;;16.78;36.05;100349.44;4383329;32;19955;-81
2021/01/15 04:30:52;;;;;;;;;;;;;;;16.77;35.44;100338.06;4383697;32;19995;-81
2021/01/15 04:33:18;;;;;;;;;;;;;;;16.77;36.15;100347.66;4370732;32;19963;-81
2021/01/15 04:35:43;;;;;;;;;;;;;;;16.77;36.28;100345.94;4371127;32;19951;-81
2021/01/15 04:38:09;;;;;;;;;;;;;;;16.77;35.88;100352.94;4363883;32;19974;-80
2021/01/15 04:40:35;;;;;;;;;;;;;;;16.75;35.84;100347.66;4369647;32;19970;-81
2021/01/15 04:43:01;;;;;;;;;;;;;;;16.76;36.26;100359.94;4370262;32;19947;-82
2021/01/15 04:45:27;;;;;;;;;;;;;;;16.76;36.51;100354.69;4370030;32;19955;-81
2021/01/15 04:47:53;;;;;;;;;;;;;;;16.77;36.54;100361.72;4370019;32;19959;-81
2021/01/15 04:50:19;;;;;;;;;;;;;;;16.77;36.34;100361.72;4388270;32;19951;-81
2021/01/15 04:52:45;;;;;;;;;;;;;;;16.77;36.11;100372.25;4370654;32;19968;-82
2021/01/15 04:55:11;;;;;;;;;;;;;;;16.77;36.58;100366.06;4369555;32;19962;-81
2021/01/15 04:57:36;;;;;;;;;;;;;;;16.76;36.89;100365.22;4370491;32;19975;-81
2021/01/15 05:00:04;;;;;;;;;;;;;;;16.77;37.08;100369.63;4369715;32;19977;-82
2021/01/15 05:02:29;;;;;;;;;;;;;;;16.76;37.02;100375.72;4370523;32;19990;-81
2021/01/15 05:04:55;;;;;;;;;;;;;;;16.76;37.13;100370.47;4370177;32;19954;-80
2021/01/15 05:07:23;;;;;;;;;;;;;;;16.77;37.33;100374.88;4383904;32;19967;-81
2021/01/15 05:09:49;;;;;;;;;;;;;;;16.78;37.44;100379.28;4387416;32;19995;-81
2021/01/15 05:12:15;;;;;;;;;;;;;;;16.79;37.64;100373.16;4354804;32;19974;-81
2021/01/15 05:14:42;;;;;;;;;;;;;;;16.79;37.57;100385.41;4357476;32;19994;-81
2021/01/15 05:17:08;;;;;;;;;;;;;;;16.79;37.60;100380.16;4383070;32;19977;-81
2021/01/15 05:19:33;;;;;;;;;;;;;;;16.79;37.72;100378.44;4369649;32;19955;-81
2021/01/15 05:21:59;;;;;;;;;;;;;;;16.79;37.74;100381.06;4383386;32;19968;-82
2021/01/15 05:24:25;;;;;;;;;;;;;;;16.80;37.81;100388.09;4369528;32;20013;-81
2021/01/15 05:26:51;;;;;;;;;;;;;;;16.79;37.84;100390.66;4369763;32;19966;-81
2021/01/15 05:29:17;;;;;;;;;;;;;;;16.79;38.01;100394.22;4369628;32;20046;-81
2021/01/15 05:31:43;;;;;;;;;;;;;;;16.80;37.98;100398.62;4370437;32;20291;-81
2021/01/15 05:34:09;;;;;;;;;;;;;;;16.80;38.07;100403.00;4394565;32;19943;-81
2021/01/15 05:36:35;;;;;;;;;;;;;;;16.79;38.13;100399.47;4384687;32;19943;-81
2021/01/15 05:39:01;;;;;;;;;;;;;;;16.78;38.26;100399.41;4382948;32;19955;-81
2021/01/15 05:41:27;;;;;;;;;;;;;;;16.78;38.26;100405.59;4369555;32;20005;-81
2021/01/15 05:43:53;;;;;;;;;;;;;;;16.77;38.25;100403.81;4395584;32;20309;-81
2021/01/15 05:46:20;;;;;;;;;;;;;;;16.77;38.36;100406.44;4375786;32;19982;-81
2021/01/15 05:48:46;;;;;;;;;;;;;;;16.78;38.39;100417.81;4394977;32;19971;-82
2021/01/15 05:51:12;;;;;;;;;;;;;;;16.77;38.36;100414.31;4379405;32;20390;-81
2021/01/15 05:53:38;;;;;;;;;;;;;;;16.77;38.44;100424.84;4366670;32;19983;-81
2021/01/15 05:56:04;;;;;;;;;;;;;;;16.76;38.50;100417.81;4383788;32;20633;-82
2021/01/15 05:58:30;;;;;;;;;;;;;;;16.77;38.46;100419.59;4368158;32;19963;-81
2021/01/15 06:00:55;;;;;;;;;;;;;;;16.77;38.48;100427.47;4362197;32;20082;-81
2021/01/15 06:03:22;;;;;;;;;;;;;;;16.76;38.57;100428.31;4367079;32;20035;-82
2021/01/15 06:05:51;;;;;;;;;;;;;;;16.76;38.63;100438.84;4364704;32;20359;-82
2021/01/15 06:08:17;;;;;;;;;;;;;;;16.77;38.55;100437.09;4360788;33;19960;-82
2021/01/15 06:10:43;;;;;;;;;;;;;;;16.75;38.63;100447.59;4364745;32;19966;-82
2021/01/15 06:13:09;;;;;;;;;;;;;;;16.76;38.71;100449.38;4366442;32;19950;-82
2021/01/15 06:15:35;;;;;;;;;;;;;;;16.76;38.70;100454.63;4366123;32;19953;-82
2021/01/15 06:18:01;;;;;;;;;;;;;;;16.75;38.71;100447.59;4372521;32;19943;-81
2021/01/15 06:20:27;;;;;;;;;;;;;;;16.75;38.74;100450.22;4382492;32;19947;-82
2021/01/15 06:22:54;;;;;;;;;;;;;;;16.75;38.79;100451.94;4359170;32;19943;-82
2021/01/15 06:25:20;;;;;;;;;;;;;;;16.76;38.84;100456.34;4359904;32;19983;-81
2021/01/15 06:27:46;;;;;;;;;;;;;;;16.75;38.82;100452.84;4367744;32;19948;-82
2021/01/15 06:30:12;;;;;;;;;;;;;;;16.74;38.89;100456.31;4370566;32;19987;-82
2021/01/15 06:32:38;;;;;;;;;;;;;;;16.74;38.87;100456.31;4368506;32;19935;-82
2021/01/15 06:35:04;;;;;;;;;;;;;;;16.75;38.87;100466.00;4368071;32;19967;-82
2021/01/15 06:37:30;;;;;;;;;;;;;;;16.74;38.93;100472.09;4369904;32;19965;-82
2021/01/15 06:39:56;;;;;;;;;;;;;;;16.74;38.96;100472.09;4363324;32;19973;-82
2021/01/15 06:42:22;;;;;;;;;;;;;;;16.74;38.97;100480.00;4368656;32;19951;-81
2021/01/15 08:15:17;;;;;;;;;;;;;;;17.70;31.73;100597.59;4431943;31;19984;-72
2021/01/15 08:17:43;;;;;;;;;;;;;;;17.70;31.73;100597.59;4435469;32;19993;-58
2021/01/15 08:20:09;;;;;;;;;;;;;;;15.91;36.98;100593.88;4422287;32;19966;-58
2021/01/15 08:22:35;;;;;;;;;;;;;;;15.31;38.31;100604.00;4424248;32;20003;-60
2021/01/15 08:25:01;;;;;;;;;;;;;;;14.98;38.48;100601.91;4428653;32;19985;-56
2021/01/15 08:27:26;;;;;;;;;;;;;;;14.80;38.57;100610.84;4427104;32;19981;-72
2021/01/15 08:29:53;;;;;;;;;;;;;;;14.68;36.92;100620.81;4427096;32;19961;-72
2021/01/15 08:32:19;;;;;;;;;;;;;;;14.54;36.25;100620.25;4425469;32;19997;-69
2021/01/15 08:34:45;;;;;;;;;;;;;;;14.40;36.41;100619.72;4413818;32;19954;-71
2021/01/15 08:37:11;;;;;;;;;;;;;;;14.28;36.66;100623.63;4411950;32;19986;-70
2021/01/15 08:39:37;;;;;;;;;;;;;;;14.21;36.86;100631.16;4435444;32;20000;-70
2021/01/15 08:42:03;;;;;;;;;;;;;;;14.22;36.97;100631.19;4442089;32;19950;-69
2021/01/15 08:44:35;;;;;;;;;;;;;;;14.21;37.01;100629.41;4423673;32;20506;-70
2021/01/15 08:47:00;;;;;;;;;;;;;;;14.16;37.12;100630.97;4398557;32;20006;-69
2021/01/15 08:49:26;;;;;;;;;;;;;;;14.13;37.21;100630.81;4412917;32;19976;-69
2021/01/15 08:51:52;;;;;;;;;;;;;;;14.08;37.36;100633.25;4417424;32;19965;-68
2021/01/15 08:54:18;;;;;;;;;;;;;;;14.05;37.65;100631.41;4414820;32;19959;-69
2021/01/15 08:56:44;;;;;;;;;;;;;;;14.07;37.53;100641.03;4428318;32;19983;-69
2021/01/15 08:59:10;;;;;;;;;;;;;;;14.05;37.44;100647.09;4427460;32;19980;-69
2021/01/15 09:01:36;;;;;;;;;;;;;;;14.05;37.38;100649.72;4428909;32;19950;-69
2021/01/15 09:04:02;;;;;;;;;;;;;;;14.05;37.44;100654.97;4428407;32;19958;-68
2021/01/15 09:06:28;;;;;;;;;;;;;;;14.07;37.39;100660.25;4428170;32;19985;-69
2021/01/15 09:08:55;;;;;;;;;;;;;;;14.07;37.48;100656.75;4427251;32;19946;-69
2021/01/15 09:11:21;;;;;;;;;;;;;;;14.07;37.47;100665.47;4427063;32;19984;-69
2021/01/15 09:13:47;;;;;;;;;;;;;;;14.09;37.53;100673.41;4429774;32;19966;-69
2021/01/15 09:16:16;;;;;;;;;;;;;;;14.08;37.58;100676.88;4428902;32;20063;-69
2021/01/15 09:18:42;;;;;;;;;;;;;;;14.08;37.90;100674.25;4441050;32;20046;-69
2021/01/15 09:21:08;;;;;;;;;;;;;;;14.08;37.77;100684.72;4432505;32;19961;-69
2021/01/15 09:23:34;;;;;;;;;;;;;;;14.08;37.66;100685.63;4441743;32;19946;-70
2021/01/15 09:26:00;;;;;;;;;;;;;;;14.09;37.90;100691.75;4420957;32;19950;-69
2021/01/15 09:28:26;;;;;;;;;;;;;;;14.12;37.77;100694.50;4431650;32;19968;-69
2021/01/15 09:30:52;;;;;;;;;;;;;;;14.12;37.71;100695.41;4417669;32;20027;-68
2021/01/15 09:33:18;;;;;;;;;;;;;;;14.14;37.60;100695.50;4430340;32;19971;-69
2021/01/15 09:35:44;;;;;;;;;;;;;;;14.14;37.63;100706.84;4405141;32;19954;-68
2021/01/15 09:38:10;;;;;;;;;;;;;;;14.14;37.60;100705.97;4417277;32;20596;-69
2021/01/15 09:40:36;;;;;;;;;;;;;;;14.15;37.64;100707.75;4428021;32;19969;-70
2021/01/15 09:43:02;;;;;;;;;;;;;;;14.15;37.59;100718.22;4426657;32;19981;-69
2021/01/15 09:45:28;;;;;;;;;;;;;;;14.16;37.57;100714.78;4407992;32;20002;-68
2021/01/15 09:47:54;;;;;;;;;;;;;;;14.19;37.56;100718.41;4406140;32;19961;-68
2021/01/15 09:50:20;;;;;;;;;;;;;;;14.17;37.56;100727.03;4413342;32;20026;-69
2021/01/15 09:52:46;;;;;;;;;;;;;;;14.16;37.58;100727.88;4403104;32;20027;-69
2021/01/15 09:55:12;;;;;;;;;;;;;;;14.20;37.48;100729.78;4417877;32;19954;-69
2021/01/15 09:57:43;;;;;;;;;;;;;;;14.23;37.47;100742.13;4432253;32;19987;-68
2021/01/15 10:00:09;;;;;;;;;;;;;;;14.24;37.42;100741.31;4417125;32;19958;-69
2021/01/15 10:02:35;;;;;;;;;;;;;;;14.29;37.33;100747.62;4422661;32;20009;-68
2021/01/15 10:05:01;;;;;;;;;;;;;;;14.27;37.34;100744.97;4402539;32;20006;-68
2021/01/15 10:07:27;;;;;;;;;;;;;;;14.27;37.38;100750.19;4415268;32;19958;-68
2021/01/15 10:09:53;;;;;;;;;;;;;;;14.24;37.35;100741.31;4414540;32;19953;-68
2021/01/15 10:12:19;;;;;;;;;;;;;;;14.19;37.55;100746.34;4416951;32;19961;-69
2021/01/15 10:14:45;;;;;;;;;;;;;;;14.15;37.68;100747.91;4412974;32;19963;-70
2021/01/15 10:17:10;;;;;;;;;;;;;;;14.16;37.75;100746.22;4415231;32;19953;-68
2021/01/15 10:19:36;;;;;;;;;;;;;;;14.16;37.78;100748.81;4411856;32;20018;-67
2021/01/15 10:22:02;;;;;;;;;;;;;;;14.18;37.74;100752.41;4414432;32;19950;-67
2021/01/15 10:24:28;;;;;;;;;;;;;;;14.16;37.76;100754.06;4401744;32;20024;-69
2021/01/15 10:26:54;;;;;;;;;;;;;;;14.17;37.79;100750.62;4426449;32;19954;-67
2021/01/15 10:29:20;;;;;;;;;;;;;;;14.15;38.06;100754.91;4408118;32;20005;-67
2021/01/15 10:31:52;;;;;;;;;;;;;;;14.16;38.26;100751.44;4411100;32;19954;-67
2021/01/15 10:34:19;;;;;;;;;;;;;;;14.18;38.08;100760.25;4414261;32;19973;-67
2021/01/15 10:36:45;;;;;;;;;;;;;;;14.20;38.05;100761.22;4420620;32;19957;-66
2021/01/15 10:39:11;;;;;;;;;;;;;;;14.17;38.10;100761.09;4430232;32;19989;-66
2021/01/15 10:41:37;;;;;;;;;;;;;;;14.18;38.14;100762.87;4409487;32;19947;-67
2021/01/15 10:44:03;;;;;;;;;;;;;;;14.20;38.33;100766.47;4400860;32;20044;-66
2021/01/15 10:46:30;;;;;;;;;;;;;;;14.19;38.46;100767.28;4409902;32;19988;-66
2021/01/15 10:48:56;;;;;;;;;;;;;;;14.20;38.22;100769.09;4416883;32;19954;-66
2021/01/15 10:51:22;;;;;;;;;;;;;;;14.20;38.22;100763.84;4408816;32;20024;-66
2021/01/15 10:53:48;;;;;;;;;;;;;;;14.20;38.22;100769.09;4410732;32;19965;-66
2021/01/15 10:56:14;;;;;;;;;;;;;;;14.25;38.05;100772.78;4411690;32;19970;-66
2021/01/15 10:58:40;;;;;;;;;;;;;;;14.27;38.00;100773.78;4422206;32;19962;-69
2021/01/15 11:01:06;;;;;;;;;;;;;;;14.29;38.01;100769.50;4431837;32;19987;-68
2021/01/15 11:03:32;;;;;;;;;;;;;;;14.07;38.47;100777.22;4430049;32;19950;-69
2021/01/15 11:05:58;;;;;;;;;;;;;;;14.07;38.17;100777.22;4432381;32;19954;-68
2021/01/15 11:08:24;;;;;;;;;;;;;;;14.15;37.81;100783.72;4429323;32;19969;-69
2021/01/15 11:10:50;;;;;;;;;;;;;;;14.18;37.82;100782.09;4429822;32;20355;-69
2021/01/15 11:13:16;;;;;;;;;;;;;;;14.23;37.76;100779.69;4430603;32;19938;-70
2021/01/15 11:15:42;;;;;;;;;;;;;;;14.27;37.68;100781.62;4429324;32;19985;-69
2021/01/15 11:18:07;;;;;;;;;;;;;;;14.29;37.65;100779.97;4416586;32;19962;-69
2021/01/15 11:20:33;;;;;;;;;;;;;;;14.36;37.49;100783.75;4418487;32;19980;-70
2021/01/15 11:22:59;;;;;;;;;;;;;;;14.39;37.49;100785.63;4432523;32;19963;-69
2021/01/15 11:25:25;;;;;;;;;;;;;;;14.36;37.62;100780.22;4432460;32;19954;-69
2021/01/15 11:27:51;;;;;;;;;;;;;;;14.38;37.55;100786.41;4431190;32;20818;-69
2021/01/15 11:30:17;;;;;;;;;;;;;;;14.37;37.57;100782.94;4431476;32;20414;-69
2021/01/15 11:32:43;;;;;;;;;;;;;;;14.33;37.62;100787.13;4419462;32;19972;-69
2021/01/15 11:35:09;;;;;;;;;;;;;;;14.36;37.63;100788.09;4414707;32;19938;-69
2021/01/15 11:37:35;;;;;;;;;;;;;;;14.28;38.12;100793.91;4428982;32;20286;-70
2021/01/15 11:40:01;;;;;;;;;;;;;;;14.25;38.15;100787.62;4431213;32;20064;-69
2021/01/15 11:42:27;;;;;;;;;;;;;;;14.19;38.02;100788.25;4405361;32;19969;-70
2021/01/15 11:44:53;;;;;;;;;;;;;;;14.12;38.12;100786.16;4420442;32;19954;-70
2021/01/15 11:47:19;;;;;;;;;;;;;;;14.10;38.20;100786.13;4431171;32;21162;-70
2021/01/15 11:49:44;;;;;;;;;;;;;;;14.07;38.24;100779.84;4432324;32;20341;-70
2021/01/15 11:52:10;;;;;;;;;;;;;;;14.10;38.13;100782.59;4416966;32;20017;-70
2021/01/15 11:54:36;;;;;;;;;;;;;;;14.16;38.03;100782.87;4417792;32;19960;-70
2021/01/15 11:57:02;;;;;;;;;;;;;;;14.13;38.11;100782.72;4430110;32;19983;-69
2021/01/15 11:59:28;;;;;;;;;;;;;;;14.11;38.22;100779.13;4431638;32;21949;-69
2021/01/15 12:01:54;;;;;;;;;;;;;;;14.15;38.22;100781.09;4418408;32;19954;-70
2021/01/15 12:04:20;;;;;;;;;;;;;;;14.20;38.19;100776.94;4431972;32;19961;-69
2021/01/15 12:06:46;;;;;;;;;;;;;;;14.21;38.17;100778.72;4412118;32;20320;-70
2021/01/15 12:09:12;;;;;;;;;;;;;;;14.22;38.20;100777.91;4416290;32;19973;-70
2021/01/15 12:11:38;;;;;;;;;;;;;;;14.17;38.39;100774.19;4418666;32;19965;-70
2021/01/15 12:14:03;;;;;;;;;;;;;;;14.18;38.45;100776.84;4414469;32;20017;-69
2021/01/15 12:16:30;;;;;;;;;;;;;;;14.22;38.38;100772.66;4432149;32;19989;-70
2021/01/15 12:18:55;;;;;;;;;;;;;;;14.25;38.13;100766.66;4430990;32;19953;-70
2021/01/15 12:21:22;;;;;;;;;;;;;;;14.26;38.07;100774.59;4430459;32;20032;-69
2021/01/15 12:23:47;;;;;;;;;;;;;;;14.26;38.10;100773.69;4415872;32;20311;-70
2021/01/15 12:26:13;;;;;;;;;;;;;;;14.27;38.02;100772.87;4415715;32;19987;-70
2021/01/15 12:28:39;;;;;;;;;;;;;;;14.28;38.01;100772.94;4428725;32;19965;-69
2021/01/15 12:31:05;;;;;;;;;;;;;;;14.28;38.13;100767.72;4431668;32;20375;-69
2021/01/15 12:33:31;;;;;;;;;;;;;;;14.27;37.99;100765.91;4405693;32;20323;-70
2021/01/15 12:35:57;;;;;;;;;;;;;;;14.31;37.97;100772.16;4401603;32;19963;-70
2021/01/15 12:38:23;;;;;;;;;;;;;;;14.32;37.90;100769.63;4427646;32;20054;-69
2021/01/15 12:40:49;;;;;;;;;;;;;;;14.29;37.89;100769.50;4430177;32;19973;-70
2021/01/15 12:43:15;;;;;;;;;;;;;;;14.35;37.86;100768.87;4423925;32;20310;-70
2021/01/15 12:45:43;;;;;;;;;;;;;;;14.34;37.93;100773.19;4431209;32;19997;-70
2021/01/15 12:48:09;;;;;;;;;;;;;;;14.32;37.93;100769.63;4431988;32;19961;-69
2021/01/15 12:50:35;;;;;;;;;;;;;;;14.34;37.88;100767.97;4430449;32;19973;-70
2021/01/15 12:53:01;;;;;;;;;;;;;;;14.39;37.73;100770.78;4430507;32;19966;-70
2021/01/15 12:55:27;;;;;;;;;;;;;;;14.36;38.45;100774.97;4431224;32;20334;-70
2021/01/15 12:57:53;;;;;;;;;;;;;;;14.31;37.92;100772.16;4430529;32;20338;-71
2021/01/15 13:00:19;;;;;;;;;;;;;;;14.34;37.88;100775.81;4429945;32;19953;-69
2021/01/15 13:02:44;;;;;;;;;;;;;;;14.33;38.07;100775.78;4430878;32;19964;-69
2021/01/15 13:05:10;;;;;;;;;;;;;;;14.29;38.21;100771.19;4418138;32;19971;-70
2021/01/15 13:07:36;;;;;;;;;;;;;;;14.23;38.12;100774.44;4405404;32;20290;-70
2021/01/15 13:10:02;;;;;;;;;;;;;;;14.15;38.26;100786.34;4418638;32;19984;-69
2021/01/15 13:12:28;;;;;;;;;;;;;;;14.08;38.42;100779.94;4420067;32;19986;-69
2021/01/15 13:14:54;;;;;;;;;;;;;;;14.07;38.43;100782.47;4434878;32;19966;-69
2021/01/15 13:17:20;;;;;;;;;;;;;;;14.07;38.43;100792.94;4433689;32;20289;-69
2021/01/15 13:19:46;;;;;;;;;;;;;;;14.12;38.36;100791.41;4434266;32;20006;-70
2021/01/15 13:22:11;;;;;;;;;;;;;;;14.12;38.45;100791.41;4420087;32;20007;-69
2021/01/15 13:24:37;;;;;;;;;;;;;;;14.16;38.42;100799.47;4424841;32;19952;-70
2021/01/15 13:27:03;;;;;;;;;;;;;;;14.15;38.38;100791.56;4433704;32;19954;-70
2021/01/15 13:29:29;;;;;;;;;;;;;;;14.15;38.33;100797.69;4427064;32;19968;-69
2021/01/15 13:31:56;;;;;;;;;;;;;;;14.16;38.33;100793.34;4433792;32;19978;-69
2021/01/15 13:34:21;;;;;;;;;;;;;;;14.20;38.52;100800.50;4434229;32;19967;-70
2021/01/15 13:36:47;;;;;;;;;;;;;;;14.19;38.63;100802.22;4434341;32;19938;-70
2021/01/15 13:39:13;;;;;;;;;;;;;;;14.18;38.37;100797.81;4423505;32;19958;-67
2021/01/15 13:41:39;;;;;;;;;;;;;;;13.62;37.12;100816.25;4427769;32;20316;-69
2021/01/15 13:44:05;;;;;;;;;;;;;;;13.01;36.09;100812.41;4433933;32;20334;-68
2021/01/15 13:46:31;;;;;;;;;;;;;;;12.37;36.55;100806.59;4418027;32;19949;-68
2021/01/15 13:48:57;;;;;;;;;;;;;;;12.07;37.57;100819.81;4420105;32;20105;-69
2021/01/15 13:51:23;;;;;;;;;;;;;;;11.79;37.50;100825.22;4416750;32;20392;-70
2021/01/15 13:53:52;;;;;;;;;;;;;;;12.16;38.16;100829.87;4402485;32;19972;-69
2021/01/15 13:56:18;;;;;;;;;;;;;;;12.60;37.62;100826.91;4418451;32;19995;-69
2021/01/15 13:58:44;;;;;;;;;;;;;;;13.00;36.92;100828.94;4413816;32;19954;-69